Isle Royale National Park, MI

6:00 AM EST on November 23, 2014 (GMT -0500)
Hancock: Sylvan Estates | Change Station
CLOSE
Current Station
Personal Weather Station
Location: Hancock, MI
Elevation: 917 ft
Nearby Weather Stations
Active Advisory: Special Statement

Elev 917 ft 47.14 °N, 88.60 °W | Updated 2 seconds ago

Overcast
Overcast
36.6 °F
Feels Like 37 °F
N
2.0
Wind Variable Wind from ESE
Gusts 10.0 mph

Today
High -- | Low -- °F
--% Chance of Precip.
Yesterday
High -- | Low -- °F
Precip. -- in
8:09 AM 5:11 PM
New Moon, 1% visible
Pressure 29.55 in
Visibility 7.0 miles
Clouds Overcast 700 ft
Windchill 37 °F
Dew Point 35 °F
Humidity 94%
Rainfall 0.05 in
Snow Depth Not available.
UV 0 out of 12
Pollen .10 out of 12
Air Quality Not available.
Flu Activity Not available.
METAR KCMX 231053Z AUTO 09007KT 7SM OVC007 02/M01 A2952 RMK AO2 SLP006 T00171006

More Conditions Fewer Conditions

Pressure 29.55 in
Visibility 7.0 miles
Clouds Overcast 700 ft
Windchill 37 °F
Dew Point 35 °F
Humidity 94%
Rainfall 0.05 in
Snow Depth Not available.
UV 0 out of 12
Pollen .10 out of 12
Air Quality Not available.
Flu Activity Not available.
METAR KCMX 231053Z AUTO 09007KT 7SM OVC007 02/M01 A2952 RMK AO2 SLP006 T00171006

More Conditions Fewer Conditions

10-Day Weather Forecast

Almanac

Astronomy

Nov. 23, 2014 Rise Set
Actual Time
Civil Twilight
Nautical Twilight
Astronomical Twilight
Moon
Length of Visible Light
Length of Day
Tomorrow will be .
, % of the Moon is Illuminated

Today's Extremes

State Highs State Lows

Community

WunderPhotos

Upload Photos

1,773,033 photos uploaded!

WunderBlogs® & News

Nearby

Air Quality

  Air Quality AQ Index Pollutant
Not available.

Snow Depth

Station Depth Elevation

Earthquake Activity

City Distance Mag. Time & Date
Minimum magnitude displayed is 2.5.

Coastal Water Temperatures

Place Temperature

Nearby Weather Stations